createdAt,value
2018-09-10T00:00:31.401Z,5.37
2018-09-10T00:03:01.280Z,2.57
2018-09-10T00:05:31.126Z,3.03
2018-09-10T00:08:01.732Z,2.57
2018-09-10T00:10:31.975Z,2.60
2018-09-10T00:13:01.886Z,2.40
2018-09-10T00:15:32.619Z,2.70
2018-09-10T00:18:02.390Z,2.40
2018-09-10T00:20:32.902Z,3.07
2018-09-10T00:23:02.338Z,2.87
2018-09-10T00:25:32.864Z,3.00
2018-09-10T00:28:03.062Z,2.90
2018-09-10T00:30:32.401Z,2.90
2018-09-10T00:33:02.899Z,2.70
2018-09-10T00:35:32.575Z,2.90
2018-09-10T00:38:02.407Z,2.47
2018-09-10T00:40:31.935Z,2.67
2018-09-10T00:43:01.982Z,2.97
2018-09-10T00:45:33.607Z,3.07
2018-09-10T00:48:04.716Z,2.53
2018-09-10T00:50:35.691Z,2.97
2018-09-10T00:53:05.786Z,2.50
2018-09-10T00:55:37.399Z,2.80
2018-09-10T00:58:07.702Z,2.67
2018-09-10T01:00:38.106Z,2.80
2018-09-10T01:03:08.467Z,3.20
2018-09-10T01:05:39.511Z,3.07
2018-09-10T01:08:11.486Z,2.63
2018-09-10T01:10:42.267Z,2.70
2018-09-10T01:13:12.223Z,2.50
2018-09-10T01:15:43.281Z,2.50
2018-09-10T01:18:13.369Z,2.77
2018-09-10T01:20:42.986Z,2.67
2018-09-10T01:23:13.673Z,2.70
2018-09-10T01:25:43.628Z,2.67
2018-09-10T01:28:13.683Z,2.47
2018-09-10T01:30:43.904Z,2.67
2018-09-10T01:33:19.543Z,2.80
2018-09-10T01:35:49.357Z,2.77
2018-09-10T01:38:20.041Z,2.80
2018-09-10T01:40:49.883Z,2.80
2018-09-10T01:43:20.671Z,2.77
2018-09-10T01:45:50.595Z,2.80
2018-09-10T01:48:21.503Z,2.80
2018-09-10T01:50:51.130Z,3.00
2018-09-10T01:53:20.291Z,2.87
2018-09-10T01:55:50.170Z,2.90
2018-09-10T01:58:21.683Z,2.80
2018-09-10T02:00:51.135Z,3.00
2018-09-10T02:03:21.578Z,2.90
2018-09-10T02:05:52.950Z,2.83
2018-09-10T02:08:22.138Z,2.70
2018-09-10T02:10:51.626Z,2.70
2018-09-10T02:13:23.805Z,2.97
2018-09-10T02:15:53.482Z,2.67
2018-09-10T02:18:23.823Z,3.07
2018-09-10T02:20:54.714Z,4.83
2018-09-10T02:23:25.219Z,2.73
2018-09-10T02:25:55.857Z,2.80
2018-09-10T02:28:25.211Z,2.90
2018-09-10T02:30:55.472Z,2.87
2018-09-10T02:33:24.863Z,2.90
2018-09-10T02:35:55.227Z,3.00
2018-09-10T02:38:25.827Z,3.00
2018-09-10T02:40:55.801Z,3.00
2018-09-10T02:43:25.762Z,3.03
2018-09-10T02:45:55.775Z,3.00
2018-09-10T02:48:26.002Z,2.90
2018-09-10T02:50:56.831Z,3.23
2018-09-10T02:53:26.875Z,3.20
2018-09-10T02:55:57.573Z,3.53
2018-09-10T02:58:27.502Z,3.07
2018-09-10T03:00:57.882Z,2.90
2018-09-10T03:03:28.331Z,3.47
2018-09-10T03:05:58.918Z,3.07
2018-09-10T03:08:29.744Z,3.20
2018-09-10T03:10:59.923Z,3.17
2018-09-10T03:13:30.071Z,3.40
2018-09-10T03:15:59.535Z,3.70
2018-09-10T03:18:30.779Z,3.37
2018-09-10T03:20:59.949Z,3.50
2018-09-10T03:23:30.642Z,3.40
2018-09-10T03:26:00.177Z,3.67
2018-09-10T03:28:30.662Z,3.60
2018-09-10T03:31:00.615Z,3.60
2018-09-10T03:33:31.481Z,3.20
2018-09-10T03:36:00.907Z,3.63
2018-09-10T03:38:31.254Z,3.60
2018-09-10T03:41:01.255Z,3.20
2018-09-10T03:43:31.243Z,3.23
2018-09-10T03:46:02.757Z,3.53
2018-09-10T03:48:32.851Z,3.00
2018-09-10T03:51:02.659Z,3.50
2018-09-10T03:53:32.630Z,3.23
2018-09-10T03:56:01.954Z,3.50
2018-09-10T03:58:31.314Z,3.53
2018-09-10T04:01:02.161Z,3.20
2018-09-10T04:03:31.564Z,3.50
2018-09-10T04:06:00.954Z,3.70
2018-09-10T04:08:30.429Z,3.67
2018-09-10T04:11:00.378Z,3.80
2018-09-10T04:13:30.331Z,4.13
2018-09-10T04:16:01.190Z,4.27
2018-09-10T04:18:31.874Z,4.20
2018-09-10T04:21:01.687Z,5.40
2018-09-10T04:23:30.946Z,5.47
2018-09-10T04:26:01.837Z,5.60
2018-09-10T04:28:31.814Z,4.93
2018-09-10T04:31:03.288Z,4.67
2018-09-10T04:33:33.699Z,4.93
2018-09-10T04:36:04.092Z,4.87
2018-09-10T04:38:33.747Z,4.83
2018-09-10T04:41:03.879Z,4.57
2018-09-10T04:43:34.440Z,4.43
2018-09-10T04:46:04.327Z,5.00
2018-09-10T04:48:34.794Z,5.40
2018-09-10T04:51:05.187Z,6.77
2018-09-10T04:53:34.979Z,7.67
2018-09-10T04:56:05.175Z,7.90
2018-09-10T04:58:35.727Z,7.77
2018-09-10T05:01:05.256Z,7.23
2018-09-10T05:03:35.798Z,7.80
2018-09-10T05:06:06.031Z,8.50
2018-09-10T05:08:36.008Z,8.30
2018-09-10T05:11:06.734Z,8.50
2018-09-10T05:13:37.039Z,8.37
2018-09-10T05:16:07.063Z,7.87
2018-09-10T05:18:37.573Z,8.50
2018-09-10T05:21:07.398Z,8.37
2018-09-10T05:23:37.923Z,8.77
2018-09-10T05:26:08.375Z,8.63
2018-09-10T05:28:38.818Z,9.70
2018-09-10T05:31:10.960Z,10.17
2018-09-10T05:33:41.511Z,10.40
2018-09-10T05:36:11.718Z,10.30
2018-09-10T05:38:44.904Z,10.20
2018-09-10T05:41:15.211Z,10.23
2018-09-10T05:43:46.227Z,11.23
2018-09-10T05:46:18.169Z,11.33
2018-09-10T05:48:48.631Z,11.80
2018-09-10T05:51:20.030Z,11.97
2018-09-10T05:53:49.626Z,11.43
2018-09-10T05:56:20.110Z,13.00
2018-09-10T05:58:50.162Z,13.00
2018-09-10T06:01:20.291Z,14.67
2018-09-10T06:03:50.346Z,15.53
2018-09-10T06:06:20.300Z,15.03
2018-09-10T06:08:51.823Z,16.10
2018-09-10T06:11:21.447Z,14.03
2018-09-10T06:13:52.055Z,13.77
2018-09-10T06:16:21.711Z,13.10
2018-09-10T06:18:51.155Z,13.53
2018-09-10T06:21:20.346Z,11.80
2018-09-10T06:23:50.207Z,12.90
2018-09-10T06:26:19.852Z,13.13
2018-09-10T06:28:50.143Z,12.80
2018-09-10T06:31:19.607Z,12.77
2018-09-10T06:33:49.236Z,13.17
2018-09-10T06:36:18.349Z,12.50
2018-09-10T06:38:47.779Z,12.57
2018-09-10T06:41:17.705Z,12.87
2018-09-10T06:43:47.087Z,12.63
2018-09-10T06:46:16.791Z,12.83
2018-09-10T06:48:47.158Z,12.50
2018-09-10T06:51:17.547Z,13.63
2018-09-10T06:53:47.319Z,13.60
2018-09-10T06:56:19.171Z,13.70
2018-09-10T06:58:49.416Z,13.53
2018-09-10T07:01:19.874Z,13.57
2018-09-10T07:03:50.998Z,13.53
2018-09-10T07:06:20.320Z,13.93
2018-09-10T07:08:50.394Z,13.87
2018-09-10T07:11:20.843Z,13.73
2018-09-10T07:13:52.339Z,13.93
2018-09-10T07:16:23.129Z,13.70
2018-09-10T07:18:52.951Z,13.53
2018-09-10T07:21:22.964Z,14.20
2018-09-10T07:23:53.162Z,14.40
2018-09-10T07:26:23.358Z,13.43
2018-09-10T07:28:54.808Z,15.13
2018-09-10T07:31:25.982Z,14.90
2018-09-10T07:33:55.247Z,14.43
2018-09-10T07:36:26.391Z,14.73
2018-09-10T07:38:57.271Z,14.53
2018-09-10T07:41:26.784Z,13.57
2018-09-10T07:43:56.241Z,14.67
2018-09-10T07:46:26.191Z,14.63
2018-09-10T07:48:56.035Z,13.93
2018-09-10T07:51:27.317Z,13.93
2018-09-10T07:53:58.216Z,14.03
2018-09-10T07:56:27.394Z,14.00
2018-09-10T07:58:56.902Z,14.47
2018-09-10T08:01:27.519Z,14.77
2018-09-10T08:03:58.123Z,14.57
2018-09-10T08:06:28.718Z,13.93
2018-09-10T08:09:00.007Z,14.83
2018-09-10T08:11:29.858Z,14.37
2018-09-10T08:13:59.115Z,14.10
2018-09-10T08:16:28.272Z,15.30
2018-09-10T08:18:57.862Z,13.97
2018-09-10T08:21:28.015Z,13.57
2018-09-10T08:23:58.203Z,15.27
2018-09-10T08:26:27.869Z,14.40
2018-09-10T08:28:57.456Z,13.37
2018-09-10T08:31:27.507Z,16.00
2018-09-10T08:33:58.870Z,14.27
2018-09-10T08:36:28.765Z,13.87
2018-09-10T08:38:59.998Z,12.43
2018-09-10T08:41:30.071Z,12.67
2018-09-10T08:44:01.696Z,12.93
2018-09-10T08:46:31.746Z,11.83
2018-09-10T08:49:02.720Z,12.70
2018-09-10T08:51:32.284Z,12.90
2018-09-10T08:54:02.382Z,13.27
2018-09-10T08:56:31.449Z,12.70
2018-09-10T08:59:00.834Z,12.93
2018-09-10T09:01:30.839Z,11.70
2018-09-10T09:04:00.826Z,11.97
2018-09-10T09:06:30.120Z,12.63
2018-09-10T09:09:02.257Z,11.93
2018-09-10T09:11:33.902Z,11.97
2018-09-10T09:14:03.855Z,11.70
2018-09-10T09:16:34.213Z,11.83
2018-09-10T09:19:04.822Z,10.33
2018-09-10T09:21:35.550Z,11.70
2018-09-10T09:24:05.967Z,11.30
2018-09-10T09:26:36.002Z,11.40
2018-09-10T09:29:05.658Z,12.33
2018-09-10T09:31:36.191Z,10.80
2018-09-10T09:34:05.890Z,11.70
2018-09-10T09:36:41.650Z,11.90
2018-09-10T09:39:18.119Z,10.67
2018-09-10T09:41:53.830Z,9.40
2018-09-10T09:44:29.898Z,10.37
2018-09-10T09:47:00.442Z,8.47
2018-09-10T09:49:30.867Z,10.40
2018-09-10T09:52:00.623Z,8.13
2018-09-10T09:54:30.793Z,7.80
2018-09-10T09:57:00.430Z,6.67
2018-09-10T09:59:31.748Z,6.70
2018-09-10T10:02:07.315Z,6.87
2018-09-10T10:04:39.001Z,6.10
2018-09-10T10:07:08.743Z,6.57
2018-09-10T10:09:39.151Z,6.37
2018-09-10T10:12:10.688Z,5.23
2018-09-10T10:14:40.719Z,6.60
2018-09-10T10:17:11.611Z,6.40
2018-09-10T10:19:41.047Z,7.00
2018-09-10T10:22:11.781Z,6.50
2018-09-10T10:24:41.994Z,5.20
2018-09-10T10:27:12.802Z,5.97
2018-09-10T10:29:42.783Z,4.73
2018-09-10T10:32:13.960Z,4.30
2018-09-10T10:34:43.894Z,3.90
2018-09-10T10:37:13.625Z,4.87
2018-09-10T10:39:43.784Z,7.03
2018-09-10T10:42:13.114Z,6.00
2018-09-10T10:44:43.169Z,5.60
2018-09-10T10:47:13.686Z,5.33
2018-09-10T10:49:44.756Z,4.63
2018-09-10T10:52:15.884Z,4.80
2018-09-10T10:54:46.634Z,4.20
2018-09-10T10:57:16.570Z,4.20
2018-09-10T10:59:46.752Z,4.50
2018-09-10T11:02:17.314Z,4.57
2018-09-10T11:04:48.302Z,4.17
2018-09-10T11:07:18.427Z,4.20
2018-09-10T11:09:47.831Z,4.43
2018-09-10T11:12:17.250Z,4.07
2018-09-10T11:14:46.414Z,3.53
2018-09-10T11:17:16.607Z,3.77
2018-09-10T11:19:46.415Z,4.30
2018-09-10T11:22:16.355Z,3.93
2018-09-10T11:24:45.833Z,4.23
2018-09-10T11:27:15.993Z,3.70
2018-09-10T11:29:46.614Z,4.87
2018-09-10T11:32:16.799Z,4.63
2018-09-10T11:34:48.045Z,3.80
2018-09-10T11:37:18.438Z,3.90
2018-09-10T11:39:49.066Z,3.60
2018-09-10T11:42:19.278Z,3.90
2018-09-10T11:44:49.952Z,3.80
2018-09-10T11:47:19.843Z,4.10
2018-09-10T11:49:49.748Z,4.00
2018-09-10T11:52:19.362Z,4.20
2018-09-10T11:54:50.143Z,4.53
2018-09-10T11:57:19.866Z,4.60
2018-09-10T11:59:50.895Z,4.40
2018-09-10T12:02:21.347Z,4.40
2018-09-10T12:04:51.935Z,4.40
2018-09-10T12:07:21.726Z,4.40
2018-09-10T12:09:51.638Z,3.83
2018-09-10T12:12:23.346Z,3.70
2018-09-10T12:14:53.389Z,4.10
2018-09-10T12:17:22.488Z,3.93
2018-09-10T12:19:52.627Z,3.80
2018-09-10T12:22:23.008Z,3.90
2018-09-10T12:24:54.355Z,3.57
2018-09-10T12:27:24.372Z,3.77
2018-09-10T12:29:54.987Z,3.83
2018-09-10T12:32:24.926Z,4.27
2018-09-10T12:34:54.791Z,3.43
2018-09-10T12:37:23.686Z,3.87
2018-09-10T12:39:54.390Z,3.87
2018-09-10T12:42:23.943Z,4.50
2018-09-10T12:44:54.796Z,4.47
2018-09-10T12:47:24.902Z,4.27
2018-09-10T12:49:55.064Z,3.93
2018-09-10T12:52:25.937Z,4.07
2018-09-10T12:54:55.639Z,3.97
2018-09-10T12:57:24.955Z,4.00
2018-09-10T12:59:54.842Z,3.60
2018-09-10T13:02:25.851Z,3.60
2018-09-10T13:04:56.150Z,3.60
2018-09-10T13:07:25.851Z,4.33
2018-09-10T13:09:56.689Z,3.60
2018-09-10T13:12:26.454Z,3.50
2018-09-10T13:14:56.128Z,3.27
2018-09-10T13:17:26.811Z,3.20
2018-09-10T13:19:55.918Z,4.57
2018-09-10T13:22:25.743Z,4.13
2018-09-10T13:24:57.069Z,3.93
2018-09-10T13:27:26.910Z,3.80
2018-09-10T13:29:57.627Z,3.87
2018-09-10T13:32:28.548Z,3.63
2018-09-10T13:34:58.995Z,3.60
2018-09-10T13:37:28.267Z,3.50
2018-09-10T13:39:59.535Z,3.60
2018-09-10T13:42:28.742Z,3.80
2018-09-10T13:44:57.737Z,4.00
2018-09-10T13:47:26.431Z,3.40
2018-09-10T13:49:55.022Z,4.10
2018-09-10T13:52:23.817Z,3.60
2018-09-10T13:54:52.789Z,3.60
2018-09-10T13:57:21.492Z,4.80
2018-09-10T13:59:50.404Z,3.70
2018-09-10T14:02:19.245Z,3.50
2018-09-10T14:04:48.226Z,4.00
2018-09-10T14:07:17.253Z,3.87
2018-09-10T14:09:47.418Z,4.00
2018-09-10T14:12:19.030Z,3.23
2018-09-10T14:14:49.143Z,3.43
2018-09-10T14:17:18.764Z,3.77
2018-09-10T14:19:48.689Z,3.77
2018-09-10T14:22:18.597Z,3.20
2018-09-10T14:24:48.278Z,3.47
2018-09-10T14:27:17.506Z,3.70
2018-09-10T14:29:47.830Z,3.53
2018-09-10T14:32:18.844Z,3.50
2018-09-10T14:34:48.987Z,3.77
2018-09-10T14:37:19.301Z,3.27
2018-09-10T14:39:49.678Z,3.37
2018-09-10T14:42:20.163Z,3.23
2018-09-10T14:44:51.039Z,3.27
2018-09-10T14:47:20.983Z,3.07
2018-09-10T14:49:52.751Z,3.27
2018-09-10T14:52:22.886Z,4.10
2018-09-10T14:54:53.662Z,4.50
2018-09-10T14:57:24.103Z,3.90
2018-09-10T14:59:53.318Z,3.87
2018-09-10T15:02:22.250Z,4.33
2018-09-10T15:04:53.062Z,4.40
2018-09-10T15:07:23.250Z,4.07
2018-09-10T15:09:55.199Z,4.00
2018-09-10T15:12:26.901Z,3.97
2018-09-10T15:14:57.013Z,4.10
2018-09-10T15:17:26.643Z,6.07
2018-09-10T15:19:56.153Z,4.97
2018-09-10T15:22:27.070Z,4.00
2018-09-10T15:24:58.083Z,4.50
2018-09-10T15:27:28.458Z,4.17
2018-09-10T15:29:58.663Z,6.43
2018-09-10T15:32:29.057Z,4.93
2018-09-10T15:35:00.429Z,4.47
2018-09-10T15:37:31.939Z,5.00
2018-09-10T15:40:03.206Z,3.97
2018-09-10T15:42:35.471Z,3.67
2018-09-10T15:45:05.492Z,3.70
2018-09-10T15:47:35.110Z,4.30
2018-09-10T15:50:04.297Z,4.90
2018-09-10T15:52:33.494Z,5.73
2018-09-10T15:55:05.257Z,6.93
2018-09-10T15:57:39.455Z,7.60
2018-09-10T16:00:09.922Z,11.40
2018-09-10T16:02:41.466Z,15.10
2018-09-10T16:05:12.194Z,10.13
2018-09-10T16:07:43.115Z,8.20
2018-09-10T16:10:13.186Z,5.40
2018-09-10T16:12:43.278Z,5.17
2018-09-10T16:15:13.822Z,4.37
2018-09-10T16:17:43.864Z,4.60
2018-09-10T16:20:14.344Z,4.73
2018-09-10T16:22:44.236Z,4.53
2018-09-10T16:25:14.502Z,3.63
2018-09-10T16:27:44.023Z,4.27
2018-09-10T16:30:14.204Z,4.50
2018-09-10T16:32:45.034Z,4.20
2018-09-10T16:35:15.267Z,3.97
2018-09-10T16:37:46.282Z,3.90
2018-09-10T16:40:16.870Z,4.20
2018-09-10T16:42:46.571Z,4.00
2018-09-10T16:45:16.355Z,3.80
2018-09-10T16:50:21.523Z,3.50
2018-09-10T16:52:52.974Z,3.60
2018-09-10T16:55:23.294Z,4.17
2018-09-10T16:57:53.871Z,4.13
2018-09-10T17:00:25.588Z,4.23
2018-09-10T17:02:55.174Z,3.77
2018-09-10T17:05:26.185Z,3.83
2018-09-10T17:07:55.663Z,3.90
2018-09-10T17:10:25.288Z,3.83
2018-09-10T17:12:55.902Z,3.60
2018-09-10T17:15:28.110Z,3.93
2018-09-10T17:17:59.221Z,4.10
2018-09-10T17:20:29.283Z,3.90
2018-09-10T17:22:59.789Z,4.17
2018-09-10T17:25:29.289Z,3.83
2018-09-10T17:27:59.468Z,3.80
2018-09-10T17:30:29.530Z,4.07
2018-09-10T17:32:59.095Z,3.77
2018-09-10T17:35:29.984Z,3.90
2018-09-10T17:37:59.798Z,3.67
2018-09-10T17:40:29.634Z,4.00
2018-09-10T17:43:00.681Z,4.07
2018-09-10T17:45:31.044Z,3.60
2018-09-10T17:48:00.178Z,3.90
2018-09-10T17:50:31.032Z,3.80
2018-09-10T17:53:01.373Z,3.63
2018-09-10T17:55:32.173Z,3.93
2018-09-10T17:58:01.559Z,3.90
2018-09-10T18:00:31.111Z,3.97
2018-09-10T18:03:01.235Z,4.20
2018-09-10T18:05:32.071Z,4.33
2018-09-10T18:08:02.538Z,4.00
2018-09-10T18:10:32.951Z,4.73
2018-09-10T18:13:03.825Z,4.40
2018-09-10T18:15:33.852Z,4.50
2018-09-10T18:18:04.065Z,4.87
2018-09-10T18:20:34.662Z,5.43
2018-09-10T18:23:04.723Z,5.53
2018-09-10T18:25:36.111Z,5.70
2018-09-10T18:28:05.723Z,6.00
2018-09-10T18:30:36.566Z,5.70
2018-09-10T18:33:06.106Z,5.47
2018-09-10T18:35:36.029Z,5.87
2018-09-10T18:38:05.415Z,6.17
2018-09-10T18:40:35.887Z,5.40
2018-09-10T18:43:05.366Z,5.97
2018-09-10T18:45:35.550Z,5.20
2018-09-10T18:48:05.178Z,5.27
2018-09-10T18:50:34.626Z,4.93
2018-09-10T18:53:04.091Z,4.90
2018-09-10T18:55:34.163Z,4.57
2018-09-10T18:58:03.896Z,4.17
2018-09-10T19:00:34.481Z,4.47
2018-09-10T19:03:05.038Z,4.10
2018-09-10T19:05:36.206Z,4.50
2018-09-10T19:08:06.047Z,4.13
2018-09-10T19:10:37.938Z,4.00
2018-09-10T19:13:08.163Z,4.90
2018-09-10T19:15:37.263Z,4.87
2018-09-10T19:18:07.395Z,4.40
2018-09-10T19:20:37.962Z,4.47
2018-09-10T19:23:08.851Z,4.60
2018-09-10T19:25:39.307Z,4.27
2018-09-10T19:28:09.039Z,4.43
2018-09-10T19:30:38.915Z,4.20
2018-09-10T19:33:08.912Z,4.57
2018-09-10T19:35:39.511Z,4.47
2018-09-10T19:38:09.097Z,4.90
2018-09-10T19:40:40.167Z,4.70
2018-09-10T19:43:10.990Z,4.47
2018-09-10T19:45:40.770Z,4.57
2018-09-10T19:48:10.927Z,4.30
2018-09-10T19:50:40.768Z,4.77
2018-09-10T19:53:12.043Z,4.73
2018-09-10T19:55:42.375Z,4.80
2018-09-10T19:58:12.459Z,5.10
2018-09-10T20:00:42.933Z,5.10
2018-09-10T20:03:12.735Z,5.20
2018-09-10T20:05:43.143Z,5.70
2018-09-10T20:08:12.860Z,6.80
2018-09-10T20:10:42.854Z,5.90
2018-09-10T20:13:13.255Z,5.47
2018-09-10T20:15:42.158Z,5.57
2018-09-10T20:18:12.806Z,4.83
2018-09-10T20:20:42.756Z,4.70
2018-09-10T20:23:12.314Z,5.20
2018-09-10T20:25:42.836Z,5.10
2018-09-10T20:28:14.026Z,5.33
2018-09-10T20:30:44.566Z,5.40
2018-09-10T20:33:15.686Z,5.10
2018-09-10T20:35:45.867Z,5.47
2018-09-10T20:38:17.343Z,5.23
2018-09-10T20:40:48.207Z,5.40
2018-09-10T20:43:18.671Z,5.83
2018-09-10T20:45:49.153Z,5.70
2018-09-10T20:48:19.439Z,5.60
2018-09-10T20:50:49.297Z,5.70
2018-09-10T20:53:19.675Z,6.03
2018-09-10T20:55:50.115Z,5.87
2018-09-10T20:58:19.375Z,5.77
2018-09-10T21:00:50.102Z,6.90
2018-09-10T21:03:19.318Z,10.07
2018-09-10T21:05:49.056Z,9.33
2018-09-10T21:08:21.623Z,8.57
2018-09-10T21:10:51.651Z,8.20
2018-09-10T21:13:22.010Z,6.80
2018-09-10T21:15:52.803Z,7.20
2018-09-10T21:18:22.963Z,7.03
2018-09-10T21:20:53.229Z,6.57
2018-09-10T21:23:23.062Z,7.10
2018-09-10T21:25:53.134Z,6.93
2018-09-10T21:28:23.502Z,7.03
2018-09-10T21:30:52.967Z,6.57
2018-09-10T21:33:23.494Z,6.10
2018-09-10T21:35:54.518Z,6.13
2018-09-10T21:38:25.214Z,6.30
2018-09-10T21:40:55.339Z,7.37
2018-09-10T21:43:25.998Z,7.27
2018-09-10T21:45:56.147Z,7.40
2018-09-10T21:48:25.495Z,6.53
2018-09-10T21:50:56.005Z,6.57
2018-09-10T21:53:25.986Z,7.37
2018-09-10T21:55:57.766Z,7.50
2018-09-10T21:58:27.211Z,6.63
2018-09-10T22:00:58.359Z,7.60
2018-09-10T22:03:28.288Z,7.43
2018-09-10T22:05:58.828Z,8.40
2018-09-10T22:08:29.102Z,7.83
2018-09-10T22:11:01.255Z,7.80
2018-09-10T22:13:31.655Z,9.60
2018-09-10T22:16:01.306Z,9.37
2018-09-10T22:18:32.450Z,10.70
2018-09-10T22:21:02.650Z,12.83
2018-09-10T22:23:32.920Z,13.67
2018-09-10T22:26:02.347Z,12.97
2018-09-10T22:28:32.301Z,10.37
2018-09-10T22:31:02.293Z,9.37
2018-09-10T22:33:33.730Z,9.43
2018-09-10T22:36:04.082Z,8.60
2018-09-10T22:38:34.294Z,8.40
2018-09-10T22:41:03.846Z,9.13
2018-09-10T22:43:33.455Z,7.63
2018-09-10T22:46:04.715Z,8.13
2018-09-10T22:48:35.095Z,7.40
2018-09-10T22:51:04.654Z,8.00
2018-09-10T22:53:34.454Z,8.03
2018-09-10T22:56:03.803Z,7.77
2018-09-10T22:58:34.245Z,7.83
2018-09-10T23:01:05.320Z,7.73
2018-09-10T23:03:36.010Z,7.60
2018-09-10T23:06:07.115Z,8.20
2018-09-10T23:08:37.504Z,8.23
2018-09-10T23:11:08.677Z,7.50
2018-09-10T23:13:39.230Z,8.43
2018-09-10T23:16:09.002Z,7.70
2018-09-10T23:18:38.642Z,8.50
2018-09-10T23:21:08.118Z,8.17
2018-09-10T23:23:37.547Z,9.20
2018-09-10T23:26:07.890Z,7.50
2018-09-10T23:28:37.734Z,8.37
2018-09-10T23:31:07.953Z,8.07
2018-09-10T23:33:37.837Z,8.70
2018-09-10T23:36:07.935Z,8.17
2018-09-10T23:38:38.922Z,8.10
2018-09-10T23:41:09.264Z,7.70
2018-09-10T23:43:38.770Z,7.43
2018-09-10T23:46:09.410Z,7.87
2018-09-10T23:48:39.582Z,8.37
2018-09-10T23:51:10.090Z,8.77
2018-09-10T23:53:40.422Z,7.23
2018-09-10T23:56:11.204Z,8.67
2018-09-10T23:58:41.475Z,8.77
